sensor_id;sensor_type;location;lat;lon;timestamp;P1;durP1;ratioP1;P2;durP2;ratioP2
48006;SDS011;33771;48.180;11.400;2024-03-08T00:00:14;28.47;;;16.00;;
48006;SDS011;33771;48.180;11.400;2024-03-08T00:02:43;24.30;;;14.80;;
48006;SDS011;33771;48.180;11.400;2024-03-08T00:05:10;21.90;;;14.60;;
48006;SDS011;33771;48.180;11.400;2024-03-08T00:07:36;24.40;;;14.57;;
48006;SDS011;33771;48.180;11.400;2024-03-08T00:10:05;24.93;;;14.90;;
48006;SDS011;33771;48.180;11.400;2024-03-08T00:12:36;25.50;;;14.90;;
48006;SDS011;33771;48.180;11.400;2024-03-08T00:15:07;28.00;;;16.10;;
48006;SDS011;33771;48.180;11.400;2024-03-08T00:17:36;23.37;;;15.13;;
48006;SDS011;33771;48.180;11.400;2024-03-08T00:20:02;24.80;;;15.07;;
48006;SDS011;33771;48.180;11.400;2024-03-08T00:22:33;25.87;;;15.40;;
48006;SDS011;33771;48.180;11.400;2024-03-08T00:24:59;24.30;;;14.67;;
48006;SDS011;33771;48.180;11.400;2024-03-08T00:27:24;26.60;;;14.60;;
48006;SDS011;33771;48.180;11.400;2024-03-08T00:29:50;27.57;;;15.13;;
48006;SDS011;33771;48.180;11.400;2024-03-08T00:32:15;21.73;;;14.50;;
48006;SDS011;33771;48.180;11.400;2024-03-08T00:34:42;26.70;;;15.70;;
48006;SDS011;33771;48.180;11.400;2024-03-08T00:37:07;23.90;;;14.83;;
48006;SDS011;33771;48.180;11.400;2024-03-08T00:39:33;28.17;;;17.30;;
48006;SDS011;33771;48.180;11.400;2024-03-08T00:41:59;25.40;;;15.87;;
48006;SDS011;33771;48.180;11.400;2024-03-08T00:44:24;26.23;;;16.03;;
48006;SDS011;33771;48.180;11.400;2024-03-08T00:46:50;25.60;;;15.93;;
48006;SDS011;33771;48.180;11.400;2024-03-08T00:49:16;24.60;;;15.53;;
48006;SDS011;33771;48.180;11.400;2024-03-08T00:51:42;24.87;;;15.97;;
48006;SDS011;33771;48.180;11.400;2024-03-08T00:54:08;26.83;;;15.90;;
48006;SDS011;33771;48.180;11.400;2024-03-08T00:56:34;27.03;;;16.30;;
48006;SDS011;33771;48.180;11.400;2024-03-08T00:59:00;26.07;;;15.50;;
48006;SDS011;33771;48.180;11.400;2024-03-08T01:01:27;30.53;;;16.37;;
48006;SDS011;33771;48.180;11.400;2024-03-08T01:03:53;26.33;;;15.20;;
48006;SDS011;33771;48.180;11.400;2024-03-08T01:06:18;25.43;;;16.60;;
48006;SDS011;33771;48.180;11.400;2024-03-08T01:08:44;24.97;;;15.47;;
48006;SDS011;33771;48.180;11.400;2024-03-08T01:11:10;26.93;;;16.70;;
48006;SDS011;33771;48.180;11.400;2024-03-08T01:13:38;28.10;;;15.37;;
48006;SDS011;33771;48.180;11.400;2024-03-08T01:16:04;24.40;;;15.93;;
48006;SDS011;33771;48.180;11.400;2024-03-08T01:18:30;23.60;;;14.67;;
48006;SDS011;33771;48.180;11.400;2024-03-08T01:20:56;23.97;;;15.97;;
48006;SDS011;33771;48.180;11.400;2024-03-08T01:23:22;25.07;;;15.40;;
48006;SDS011;33771;48.180;11.400;2024-03-08T01:25:47;27.20;;;16.70;;
48006;SDS011;33771;48.180;11.400;2024-03-08T01:28:17;27.70;;;16.57;;
48006;SDS011;33771;48.180;11.400;2024-03-08T01:30:42;29.37;;;16.57;;
48006;SDS011;33771;48.180;11.400;2024-03-08T01:33:08;29.47;;;16.53;;
48006;SDS011;33771;48.180;11.400;2024-03-08T01:35:33;29.33;;;17.23;;
48006;SDS011;33771;48.180;11.400;2024-03-08T01:37:59;25.70;;;16.43;;
48006;SDS011;33771;48.180;11.400;2024-03-08T01:40:24;26.70;;;16.57;;
48006;SDS011;33771;48.180;11.400;2024-03-08T01:42:50;29.37;;;17.40;;
48006;SDS011;33771;48.180;11.400;2024-03-08T01:45:16;29.77;;;17.07;;
48006;SDS011;33771;48.180;11.400;2024-03-08T01:47:41;28.23;;;16.20;;
48006;SDS011;33771;48.180;11.400;2024-03-08T01:50:07;23.30;;;15.47;;
48006;SDS011;33771;48.180;11.400;2024-03-08T01:52:33;26.63;;;16.17;;
48006;SDS011;33771;48.180;11.400;2024-03-08T01:55:01;27.70;;;16.03;;
48006;SDS011;33771;48.180;11.400;2024-03-08T01:57:28;27.83;;;16.30;;
48006;SDS011;33771;48.180;11.400;2024-03-08T01:59:56;29.50;;;18.07;;
48006;SDS011;33771;48.180;11.400;2024-03-08T02:02:22;28.27;;;16.67;;
48006;SDS011;33771;48.180;11.400;2024-03-08T02:04:48;29.37;;;16.50;;
48006;SDS011;33771;48.180;11.400;2024-03-08T02:07:14;28.43;;;16.83;;
48006;SDS011;33771;48.180;11.400;2024-03-08T02:09:39;27.70;;;16.47;;
48006;SDS011;33771;48.180;11.400;2024-03-08T02:12:05;30.50;;;16.70;;
48006;SDS011;33771;48.180;11.400;2024-03-08T02:14:32;26.30;;;15.70;;
48006;SDS011;33771;48.180;11.400;2024-03-08T02:17:01;27.20;;;16.23;;
48006;SDS011;33771;48.180;11.400;2024-03-08T02:19:27;28.73;;;17.20;;
48006;SDS011;33771;48.180;11.400;2024-03-08T02:21:53;29.40;;;17.20;;
48006;SDS011;33771;48.180;11.400;2024-03-08T02:24:19;28.67;;;15.80;;
48006;SDS011;33771;48.180;11.400;2024-03-08T02:26:44;31.03;;;17.37;;
48006;SDS011;33771;48.180;11.400;2024-03-08T02:29:10;30.47;;;17.37;;
48006;SDS011;33771;48.180;11.400;2024-03-08T02:31:35;31.90;;;17.73;;
48006;SDS011;33771;48.180;11.400;2024-03-08T02:34:01;29.80;;;17.53;;
48006;SDS011;33771;48.180;11.400;2024-03-08T02:36:27;36.03;;;18.40;;
48006;SDS011;33771;48.180;11.400;2024-03-08T02:38:52;31.47;;;19.07;;
48006;SDS011;33771;48.180;11.400;2024-03-08T02:41:20;28.67;;;17.20;;
48006;SDS011;33771;48.180;11.400;2024-03-08T02:43:46;29.57;;;17.60;;
48006;SDS011;33771;48.180;11.400;2024-03-08T02:46:11;30.47;;;18.77;;
48006;SDS011;33771;48.180;11.400;2024-03-08T02:48:37;30.33;;;17.63;;
48006;SDS011;33771;48.180;11.400;2024-03-08T02:51:02;27.03;;;17.53;;
48006;SDS011;33771;48.180;11.400;2024-03-08T02:53:28;28.40;;;17.23;;
48006;SDS011;33771;48.180;11.400;2024-03-08T02:55:54;33.53;;;18.40;;
48006;SDS011;33771;48.180;11.400;2024-03-08T02:58:20;35.27;;;19.33;;
48006;SDS011;33771;48.180;11.400;2024-03-08T03:00:45;32.30;;;18.37;;
48006;SDS011;33771;48.180;11.400;2024-03-08T03:03:11;32.87;;;18.33;;
48006;SDS011;33771;48.180;11.400;2024-03-08T03:05:36;32.57;;;17.90;;
48006;SDS011;33771;48.180;11.400;2024-03-08T03:08:02;32.80;;;18.67;;
48006;SDS011;33771;48.180;11.400;2024-03-08T03:10:33;28.70;;;17.27;;
48006;SDS011;33771;48.180;11.400;2024-03-08T03:12:59;31.73;;;17.80;;
48006;SDS011;33771;48.180;11.400;2024-03-08T03:15:24;29.37;;;19.20;;
48006;SDS011;33771;48.180;11.400;2024-03-08T03:17:50;33.77;;;17.80;;
48006;SDS011;33771;48.180;11.400;2024-03-08T03:20:16;31.90;;;18.63;;
48006;SDS011;33771;48.180;11.400;2024-03-08T03:22:48;33.80;;;18.77;;
48006;SDS011;33771;48.180;11.400;2024-03-08T03:25:19;32.67;;;17.93;;
48006;SDS011;33771;48.180;11.400;2024-03-08T03:27:50;34.90;;;18.37;;
48006;SDS011;33771;48.180;11.400;2024-03-08T03:30:17;29.83;;;17.30;;
48006;SDS011;33771;48.180;11.400;2024-03-08T03:32:46;32.77;;;18.57;;
48006;SDS011;33771;48.180;11.400;2024-03-08T03:35:13;34.17;;;18.97;;
48006;SDS011;33771;48.180;11.400;2024-03-08T03:37:40;31.30;;;18.50;;
48006;SDS011;33771;48.180;11.400;2024-03-08T03:40:08;36.50;;;20.33;;
48006;SDS011;33771;48.180;11.400;2024-03-08T03:42:34;35.37;;;20.03;;
48006;SDS011;33771;48.180;11.400;2024-03-08T03:44:59;34.30;;;19.97;;
48006;SDS011;33771;48.180;11.400;2024-03-08T03:47:25;33.50;;;20.27;;
48006;SDS011;33771;48.180;11.400;2024-03-08T03:49:52;33.07;;;19.43;;
48006;SDS011;33771;48.180;11.400;2024-03-08T03:52:19;32.43;;;18.50;;
48006;SDS011;33771;48.180;11.400;2024-03-08T03:54:44;34.03;;;18.93;;
48006;SDS011;33771;48.180;11.400;2024-03-08T03:57:10;32.50;;;18.67;;
48006;SDS011;33771;48.180;11.400;2024-03-08T03:59:37;35.67;;;20.07;;
48006;SDS011;33771;48.180;11.400;2024-03-08T04:02:03;32.83;;;19.50;;
48006;SDS011;33771;48.180;11.400;2024-03-08T04:04:29;35.10;;;20.00;;
48006;SDS011;33771;48.180;11.400;2024-03-08T04:06:54;33.10;;;20.07;;
48006;SDS011;33771;48.180;11.400;2024-03-08T04:09:20;35.40;;;20.23;;
48006;SDS011;33771;48.180;11.400;2024-03-08T04:11:47;37.03;;;21.07;;
48006;SDS011;33771;48.180;11.400;2024-03-08T04:14:13;35.47;;;20.37;;
48006;SDS011;33771;48.180;11.400;2024-03-08T04:16:38;34.07;;;20.07;;
48006;SDS011;33771;48.180;11.400;2024-03-08T04:19:04;36.60;;;21.30;;
48006;SDS011;33771;48.180;11.400;2024-03-08T04:21:30;36.93;;;20.93;;
48006;SDS011;33771;48.180;11.400;2024-03-08T04:23:55;32.67;;;19.57;;
48006;SDS011;33771;48.180;11.400;2024-03-08T04:26:21;38.53;;;21.53;;
48006;SDS011;33771;48.180;11.400;2024-03-08T04:28:47;37.87;;;21.50;;
48006;SDS011;33771;48.180;11.400;2024-03-08T04:31:12;35.37;;;21.60;;
48006;SDS011;33771;48.180;11.400;2024-03-08T04:33:38;36.37;;;20.50;;
48006;SDS011;33771;48.180;11.400;2024-03-08T04:36:04;38.13;;;20.43;;
48006;SDS011;33771;48.180;11.400;2024-03-08T04:38:30;34.53;;;21.03;;
48006;SDS011;33771;48.180;11.400;2024-03-08T04:40:56;36.27;;;21.00;;
48006;SDS011;33771;48.180;11.400;2024-03-08T04:43:22;37.30;;;22.00;;
48006;SDS011;33771;48.180;11.400;2024-03-08T04:45:50;35.07;;;20.47;;
48006;SDS011;33771;48.180;11.400;2024-03-08T04:48:16;37.23;;;22.00;;
48006;SDS011;33771;48.180;11.400;2024-03-08T04:50:41;38.07;;;21.87;;
48006;SDS011;33771;48.180;11.400;2024-03-08T04:53:07;37.07;;;23.03;;
48006;SDS011;33771;48.180;11.400;2024-03-08T04:55:33;36.07;;;21.63;;
48006;SDS011;33771;48.180;11.400;2024-03-08T04:57:59;36.57;;;21.90;;
48006;SDS011;33771;48.180;11.400;2024-03-08T05:00:25;40.87;;;23.73;;
48006;SDS011;33771;48.180;11.400;2024-03-08T05:02:50;39.40;;;22.23;;
48006;SDS011;33771;48.180;11.400;2024-03-08T05:05:18;41.57;;;22.00;;
48006;SDS011;33771;48.180;11.400;2024-03-08T05:07:44;36.97;;;23.00;;
48006;SDS011;33771;48.180;11.400;2024-03-08T05:10:10;41.00;;;23.90;;
48006;SDS011;33771;48.180;11.400;2024-03-08T05:12:36;41.60;;;23.17;;
48006;SDS011;33771;48.180;11.400;2024-03-08T05:15:04;43.67;;;23.83;;
48006;SDS011;33771;48.180;11.400;2024-03-08T05:17:30;39.07;;;23.93;;
48006;SDS011;33771;48.180;11.400;2024-03-08T05:19:56;40.23;;;23.37;;
48006;SDS011;33771;48.180;11.400;2024-03-08T05:22:21;40.37;;;25.13;;
48006;SDS011;33771;48.180;11.400;2024-03-08T05:24:47;43.20;;;23.97;;
48006;SDS011;33771;48.180;11.400;2024-03-08T05:27:13;46.10;;;25.73;;
48006;SDS011;33771;48.180;11.400;2024-03-08T05:29:38;41.73;;;23.93;;
48006;SDS011;33771;48.180;11.400;2024-03-08T05:32:04;40.20;;;24.37;;
48006;SDS011;33771;48.180;11.400;2024-03-08T05:34:29;45.07;;;24.97;;
48006;SDS011;33771;48.180;11.400;2024-03-08T05:36:55;41.37;;;26.13;;
48006;SDS011;33771;48.180;11.400;2024-03-08T05:39:22;40.10;;;22.83;;
48006;SDS011;33771;48.180;11.400;2024-03-08T05:41:48;46.60;;;26.43;;
48006;SDS011;33771;48.180;11.400;2024-03-08T05:44:15;56.33;;;33.17;;
48006;SDS011;33771;48.180;11.400;2024-03-08T05:46:44;51.17;;;33.20;;
48006;SDS011;33771;48.180;11.400;2024-03-08T05:49:11;45.37;;;25.93;;
48006;SDS011;33771;48.180;11.400;2024-03-08T05:51:37;48.27;;;27.73;;
48006;SDS011;33771;48.180;11.400;2024-03-08T05:54:07;47.50;;;27.23;;
48006;SDS011;33771;48.180;11.400;2024-03-08T05:56:35;43.10;;;25.57;;
48006;SDS011;33771;48.180;11.400;2024-03-08T05:59:01;48.97;;;26.10;;
48006;SDS011;33771;48.180;11.400;2024-03-08T06:01:27;59.17;;;35.20;;
48006;SDS011;33771;48.180;11.400;2024-03-08T06:03:53;46.53;;;26.27;;
48006;SDS011;33771;48.180;11.400;2024-03-08T06:06:22;63.07;;;37.73;;
48006;SDS011;33771;48.180;11.400;2024-03-08T06:08:48;50.40;;;29.07;;
48006;SDS011;33771;48.180;11.400;2024-03-08T06:11:14;54.17;;;33.50;;
48006;SDS011;33771;48.180;11.400;2024-03-08T06:13:42;61.03;;;37.57;;
48006;SDS011;33771;48.180;11.400;2024-03-08T06:16:08;48.83;;;31.23;;
48006;SDS011;33771;48.180;11.400;2024-03-08T06:18:34;47.10;;;27.37;;
48006;SDS011;33771;48.180;11.400;2024-03-08T06:21:05;41.30;;;26.00;;
48006;SDS011;33771;48.180;11.400;2024-03-08T06:23:32;43.13;;;25.27;;
48006;SDS011;33771;48.180;11.400;2024-03-08T06:25:58;41.27;;;24.13;;
48006;SDS011;33771;48.180;11.400;2024-03-08T06:28:24;42.80;;;25.37;;
48006;SDS011;33771;48.180;11.400;2024-03-08T06:30:49;48.00;;;26.27;;
48006;SDS011;33771;48.180;11.400;2024-03-08T06:33:16;40.13;;;23.77;;
48006;SDS011;33771;48.180;11.400;2024-03-08T06:35:45;37.07;;;23.97;;
48006;SDS011;33771;48.180;11.400;2024-03-08T06:38:10;40.60;;;23.13;;
48006;SDS011;33771;48.180;11.400;2024-03-08T06:40:36;42.33;;;24.80;;
48006;SDS011;33771;48.180;11.400;2024-03-08T06:43:02;38.93;;;23.33;;
48006;SDS011;33771;48.180;11.400;2024-03-08T06:45:30;38.20;;;21.87;;
48006;SDS011;33771;48.180;11.400;2024-03-08T06:47:56;40.20;;;22.83;;
48006;SDS011;33771;48.180;11.400;2024-03-08T06:50:22;45.80;;;25.03;;
48006;SDS011;33771;48.180;11.400;2024-03-08T06:52:47;43.53;;;24.93;;
48006;SDS011;33771;48.180;11.400;2024-03-08T06:55:18;46.73;;;27.87;;
48006;SDS011;33771;48.180;11.400;2024-03-08T06:57:46;42.43;;;25.17;;
48006;SDS011;33771;48.180;11.400;2024-03-08T07:00:12;64.10;;;35.93;;
48006;SDS011;33771;48.180;11.400;2024-03-08T07:02:43;61.23;;;36.53;;
48006;SDS011;33771;48.180;11.400;2024-03-08T07:05:10;47.07;;;30.43;;
48006;SDS011;33771;48.180;11.400;2024-03-08T07:07:36;35.60;;;21.40;;
48006;SDS011;33771;48.180;11.400;2024-03-08T07:10:02;40.87;;;25.03;;
48006;SDS011;33771;48.180;11.400;2024-03-08T07:12:28;43.30;;;24.93;;
48006;SDS011;33771;48.180;11.400;2024-03-08T07:14:54;37.03;;;21.80;;
48006;SDS011;33771;48.180;11.400;2024-03-08T07:17:19;39.40;;;21.20;;
48006;SDS011;33771;48.180;11.400;2024-03-08T07:19:45;33.30;;;19.73;;
48006;SDS011;33771;48.180;11.400;2024-03-08T07:22:10;40.10;;;23.93;;
48006;SDS011;33771;48.180;11.400;2024-03-08T07:24:36;37.17;;;21.20;;
48006;SDS011;33771;48.180;11.400;2024-03-08T07:27:02;32.37;;;19.07;;
48006;SDS011;33771;48.180;11.400;2024-03-08T07:29:30;37.10;;;18.80;;
48006;SDS011;33771;48.180;11.400;2024-03-08T07:31:55;35.17;;;19.40;;
48006;SDS011;33771;48.180;11.400;2024-03-08T07:34:37;35.60;;;19.00;;
48006;SDS011;33771;48.180;11.400;2024-03-08T07:37:04;35.10;;;21.60;;
48006;SDS011;33771;48.180;11.400;2024-03-08T07:39:30;41.17;;;22.80;;
48006;SDS011;33771;48.180;11.400;2024-03-08T07:41:56;33.73;;;20.30;;
48006;SDS011;33771;48.180;11.400;2024-03-08T07:44:22;32.57;;;19.90;;
48006;SDS011;33771;48.180;11.400;2024-03-08T07:46:48;29.33;;;18.37;;
48006;SDS011;33771;48.180;11.400;2024-03-08T07:49:14;31.23;;;18.00;;
48006;SDS011;33771;48.180;11.400;2024-03-08T07:51:40;27.40;;;17.73;;
48006;SDS011;33771;48.180;11.400;2024-03-08T07:54:06;31.60;;;20.30;;
48006;SDS011;33771;48.180;11.400;2024-03-08T07:56:34;31.63;;;19.23;;
48006;SDS011;33771;48.180;11.400;2024-03-08T07:59:01;35.07;;;18.60;;
48006;SDS011;33771;48.180;11.400;2024-03-08T08:01:29;41.17;;;19.17;;
48006;SDS011;33771;48.180;11.400;2024-03-08T08:03:55;36.50;;;19.97;;
48006;SDS011;33771;48.180;11.400;2024-03-08T08:06:21;32.87;;;18.77;;
48006;SDS011;33771;48.180;11.400;2024-03-08T08:08:47;35.10;;;20.23;;
48006;SDS011;33771;48.180;11.400;2024-03-08T08:11:13;37.83;;;21.10;;
48006;SDS011;33771;48.180;11.400;2024-03-08T08:13:41;35.33;;;21.20;;
48006;SDS011;33771;48.180;11.400;2024-03-08T08:16:08;37.37;;;22.00;;
48006;SDS011;33771;48.180;11.400;2024-03-08T08:18:34;33.20;;;19.23;;
48006;SDS011;33771;48.180;11.400;2024-03-08T08:21:00;32.57;;;20.60;;
48006;SDS011;33771;48.180;11.400;2024-03-08T08:23:26;40.33;;;22.57;;
48006;SDS011;33771;48.180;11.400;2024-03-08T08:25:51;39.43;;;21.17;;
48006;SDS011;33771;48.180;11.400;2024-03-08T08:28:17;39.57;;;22.40;;
48006;SDS011;33771;48.180;11.400;2024-03-08T08:30:43;33.60;;;19.73;;
48006;SDS011;33771;48.180;11.400;2024-03-08T08:33:09;36.00;;;21.07;;
48006;SDS011;33771;48.180;11.400;2024-03-08T08:35:35;33.97;;;18.17;;
48006;SDS011;33771;48.180;11.400;2024-03-08T08:38:02;33.53;;;19.50;;
48006;SDS011;33771;48.180;11.400;2024-03-08T08:40:28;34.67;;;22.07;;
48006;SDS011;33771;48.180;11.400;2024-03-08T08:42:56;32.20;;;18.93;;
48006;SDS011;33771;48.180;11.400;2024-03-08T08:45:24;33.47;;;18.37;;
48006;SDS011;33771;48.180;11.400;2024-03-08T08:47:50;34.00;;;19.13;;
48006;SDS011;33771;48.180;11.400;2024-03-08T08:50:16;37.57;;;21.77;;
48006;SDS011;33771;48.180;11.400;2024-03-08T08:52:47;39.10;;;23.93;;
48006;SDS011;33771;48.180;11.400;2024-03-08T08:55:13;41.87;;;22.77;;
48006;SDS011;33771;48.180;11.400;2024-03-08T08:57:42;49.47;;;27.47;;
48006;SDS011;33771;48.180;11.400;2024-03-08T09:00:09;33.27;;;20.13;;
48006;SDS011;33771;48.180;11.400;2024-03-08T09:02:40;33.50;;;20.97;;
48006;SDS011;33771;48.180;11.400;2024-03-08T09:05:06;33.57;;;19.40;;
48006;SDS011;33771;48.180;11.400;2024-03-08T09:07:34;36.40;;;19.97;;
48006;SDS011;33771;48.180;11.400;2024-03-08T09:10:00;34.70;;;19.67;;
48006;SDS011;33771;48.180;11.400;2024-03-08T09:12:26;34.87;;;20.40;;
48006;SDS011;33771;48.180;11.400;2024-03-08T09:14:52;32.60;;;19.57;;
48006;SDS011;33771;48.180;11.400;2024-03-08T09:17:17;32.23;;;19.30;;
48006;SDS011;33771;48.180;11.400;2024-03-08T09:19:45;30.83;;;17.93;;
48006;SDS011;33771;48.180;11.400;2024-03-08T09:22:12;29.17;;;17.73;;
48006;SDS011;33771;48.180;11.400;2024-03-08T09:24:38;35.63;;;20.27;;
48006;SDS011;33771;48.180;11.400;2024-03-08T09:27:04;31.87;;;18.60;;
48006;SDS011;33771;48.180;11.400;2024-03-08T09:29:29;35.40;;;20.37;;
48006;SDS011;33771;48.180;11.400;2024-03-08T09:31:55;33.37;;;19.47;;
48006;SDS011;33771;48.180;11.400;2024-03-08T09:34:20;31.43;;;18.53;;
48006;SDS011;33771;48.180;11.400;2024-03-08T09:36:46;30.60;;;18.97;;
48006;SDS011;33771;48.180;11.400;2024-03-08T09:39:12;29.90;;;18.13;;
48006;SDS011;33771;48.180;11.400;2024-03-08T09:41:42;30.93;;;17.60;;
48006;SDS011;33771;48.180;11.400;2024-03-08T09:44:08;36.17;;;20.87;;
48006;SDS011;33771;48.180;11.400;2024-03-08T09:46:34;31.43;;;18.70;;
48006;SDS011;33771;48.180;11.400;2024-03-08T09:49:00;31.03;;;16.97;;
48006;SDS011;33771;48.180;11.400;2024-03-08T09:51:27;31.63;;;17.13;;
48006;SDS011;33771;48.180;11.400;2024-03-08T09:53:54;31.57;;;18.13;;
48006;SDS011;33771;48.180;11.400;2024-03-08T09:56:20;34.43;;;19.77;;
48006;SDS011;33771;48.180;11.400;2024-03-08T09:58:48;32.90;;;18.43;;
48006;SDS011;33771;48.180;11.400;2024-03-08T10:01:31;44.00;;;24.70;;
48006;SDS011;33771;48.180;11.400;2024-03-08T10:03:57;44.63;;;25.40;;
48006;SDS011;33771;48.180;11.400;2024-03-08T10:06:23;42.77;;;24.73;;
48006;SDS011;33771;48.180;11.400;2024-03-08T10:08:49;41.33;;;25.23;;
48006;SDS011;33771;48.180;11.400;2024-03-08T10:11:17;37.43;;;21.60;;
48006;SDS011;33771;48.180;11.400;2024-03-08T10:13:44;46.23;;;25.83;;
48006;SDS011;33771;48.180;11.400;2024-03-08T10:16:11;41.07;;;23.97;;
48006;SDS011;33771;48.180;11.400;2024-03-08T10:18:37;32.87;;;21.27;;
48006;SDS011;33771;48.180;11.400;2024-03-08T10:21:06;37.40;;;21.83;;
48006;SDS011;33771;48.180;11.400;2024-03-08T10:23:35;40.83;;;21.63;;
48006;SDS011;33771;48.180;11.400;2024-03-08T10:26:14;33.80;;;21.20;;
48006;SDS011;33771;48.180;11.400;2024-03-08T10:28:41;35.70;;;21.80;;
48006;SDS011;33771;48.180;11.400;2024-03-08T10:31:08;34.73;;;20.17;;
48006;SDS011;33771;48.180;11.400;2024-03-08T10:33:34;32.40;;;20.67;;
48006;SDS011;33771;48.180;11.400;2024-03-08T10:36:00;29.20;;;19.47;;
48006;SDS011;33771;48.180;11.400;2024-03-08T10:38:26;30.37;;;18.50;;
48006;SDS011;33771;48.180;11.400;2024-03-08T10:40:53;32.37;;;18.30;;
48006;SDS011;33771;48.180;11.400;2024-03-08T10:43:25;28.97;;;17.30;;
48006;SDS011;33771;48.180;11.400;2024-03-08T10:46:04;25.20;;;16.60;;
48006;SDS011;33771;48.180;11.400;2024-03-08T10:48:57;30.50;;;19.10;;
48006;SDS011;33771;48.180;11.400;2024-03-08T10:51:27;29.47;;;17.93;;
48006;SDS011;33771;48.180;11.400;2024-03-08T10:53:54;31.63;;;19.13;;
48006;SDS011;33771;48.180;11.400;2024-03-08T10:56:22;32.20;;;18.63;;
48006;SDS011;33771;48.180;11.400;2024-03-08T10:58:48;44.30;;;24.83;;
48006;SDS011;33771;48.180;11.400;2024-03-08T11:01:14;93.37;;;47.20;;
48006;SDS011;33771;48.180;11.400;2024-03-08T11:09:03;60.37;;;32.43;;
48006;SDS011;33771;48.180;11.400;2024-03-08T11:11:49;62.87;;;32.10;;
48006;SDS011;33771;48.180;11.400;2024-03-08T11:17:21;69.87;;;36.90;;
48006;SDS011;33771;48.180;11.400;2024-03-08T11:22:21;33.33;;;20.57;;
48006;SDS011;33771;48.180;11.400;2024-03-08T11:25:03;29.77;;;17.57;;
48006;SDS011;33771;48.180;11.400;2024-03-08T11:27:34;73.20;;;42.93;;
48006;SDS011;33771;48.180;11.400;2024-03-08T11:30:02;35.83;;;20.43;;
48006;SDS011;33771;48.180;11.400;2024-03-08T11:32:41;33.23;;;20.53;;
48006;SDS011;33771;48.180;11.400;2024-03-08T11:35:19;29.43;;;19.27;;
48006;SDS011;33771;48.180;11.400;2024-03-08T11:37:46;28.33;;;18.40;;
48006;SDS011;33771;48.180;11.400;2024-03-08T11:40:12;49.47;;;32.90;;
48006;SDS011;33771;48.180;11.400;2024-03-08T11:42:45;27.27;;;18.40;;
48006;SDS011;33771;48.180;11.400;2024-03-08T11:45:16;27.50;;;17.03;;
48006;SDS011;33771;48.180;11.400;2024-03-08T11:47:46;24.77;;;16.57;;
48006;SDS011;33771;48.180;11.400;2024-03-08T11:50:12;25.73;;;17.43;;
48006;SDS011;33771;48.180;11.400;2024-03-08T11:52:39;26.40;;;16.20;;
48006;SDS011;33771;48.180;11.400;2024-03-08T11:55:05;22.37;;;14.80;;
48006;SDS011;33771;48.180;11.400;2024-03-08T11:57:31;23.53;;;15.23;;
48006;SDS011;33771;48.180;11.400;2024-03-08T11:59:57;24.27;;;15.97;;
48006;SDS011;33771;48.180;11.400;2024-03-08T12:02:30;28.80;;;17.27;;
48006;SDS011;33771;48.180;11.400;2024-03-08T12:04:57;22.90;;;15.37;;
48006;SDS011;33771;48.180;11.400;2024-03-08T12:07:24;22.63;;;15.47;;
48006;SDS011;33771;48.180;11.400;2024-03-08T12:12:47;22.43;;;14.80;;
48006;SDS011;33771;48.180;11.400;2024-03-08T12:15:15;25.60;;;16.80;;
48006;SDS011;33771;48.180;11.400;2024-03-08T12:17:42;23.20;;;15.00;;
48006;SDS011;33771;48.180;11.400;2024-03-08T12:20:15;23.33;;;14.73;;
48006;SDS011;33771;48.180;11.400;2024-03-08T12:22:42;22.50;;;14.93;;
48006;SDS011;33771;48.180;11.400;2024-03-08T12:25:11;24.07;;;14.80;;
48006;SDS011;33771;48.180;11.400;2024-03-08T12:27:38;22.03;;;14.50;;
48006;SDS011;33771;48.180;11.400;2024-03-08T12:32:53;23.70;;;14.63;;
48006;SDS011;33771;48.180;11.400;2024-03-08T12:35:22;23.60;;;15.20;;
48006;SDS011;33771;48.180;11.400;2024-03-08T12:37:50;23.03;;;15.33;;
48006;SDS011;33771;48.180;11.400;2024-03-08T12:40:17;26.63;;;15.07;;
48006;SDS011;33771;48.180;11.400;2024-03-08T12:42:44;25.03;;;16.07;;
48006;SDS011;33771;48.180;11.400;2024-03-08T12:45:14;24.37;;;16.20;;
48006;SDS011;33771;48.180;11.400;2024-03-08T12:47:39;21.27;;;14.40;;
48006;SDS011;33771;48.180;11.400;2024-03-08T12:50:07;24.43;;;15.33;;
48006;SDS011;33771;48.180;11.400;2024-03-08T12:52:33;23.23;;;15.00;;
48006;SDS011;33771;48.180;11.400;2024-03-08T12:54:59;21.40;;;14.20;;
48006;SDS011;33771;48.180;11.400;2024-03-08T12:57:31;22.97;;;15.53;;
48006;SDS011;33771;48.180;11.400;2024-03-08T12:59:58;21.57;;;13.60;;
48006;SDS011;33771;48.180;11.400;2024-03-08T13:02:24;23.07;;;14.57;;
48006;SDS011;33771;48.180;11.400;2024-03-08T13:04:51;24.27;;;14.37;;
48006;SDS011;33771;48.180;11.400;2024-03-08T13:07:22;21.30;;;14.80;;
48006;SDS011;33771;48.180;11.400;2024-03-08T13:09:50;22.50;;;15.30;;
48006;SDS011;33771;48.180;11.400;2024-03-08T13:12:19;20.40;;;13.90;;
48006;SDS011;33771;48.180;11.400;2024-03-08T13:14:46;21.93;;;14.87;;
48006;SDS011;33771;48.180;11.400;2024-03-08T13:17:12;22.47;;;15.47;;
48006;SDS011;33771;48.180;11.400;2024-03-08T13:19:41;24.47;;;15.57;;
48006;SDS011;33771;48.180;11.400;2024-03-08T13:22:07;22.73;;;15.03;;
48006;SDS011;33771;48.180;11.400;2024-03-08T13:24:38;24.50;;;14.47;;
48006;SDS011;33771;48.180;11.400;2024-03-08T13:27:05;19.13;;;13.23;;
48006;SDS011;33771;48.180;11.400;2024-03-08T13:29:41;20.40;;;14.33;;
48006;SDS011;33771;48.180;11.400;2024-03-08T13:32:08;17.83;;;12.77;;
48006;SDS011;33771;48.180;11.400;2024-03-08T13:34:36;19.70;;;13.17;;
48006;SDS011;33771;48.180;11.400;2024-03-08T13:37:02;20.83;;;13.60;;
48006;SDS011;33771;48.180;11.400;2024-03-08T13:39:30;20.17;;;13.67;;
48006;SDS011;33771;48.180;11.400;2024-03-08T13:42:05;19.67;;;13.77;;
48006;SDS011;33771;48.180;11.400;2024-03-08T13:44:34;20.30;;;14.03;;
48006;SDS011;33771;48.180;11.400;2024-03-08T13:47:01;20.17;;;13.17;;
48006;SDS011;33771;48.180;11.400;2024-03-08T13:49:29;20.17;;;13.10;;
48006;SDS011;33771;48.180;11.400;2024-03-08T13:51:55;21.10;;;13.00;;
48006;SDS011;33771;48.180;11.400;2024-03-08T13:54:20;19.63;;;13.67;;
48006;SDS011;33771;48.180;11.400;2024-03-08T13:56:46;21.17;;;12.93;;
48006;SDS011;33771;48.180;11.400;2024-03-08T13:59:12;18.88;;;13.35;;
48006;SDS011;33771;48.180;11.400;2024-03-08T14:01:38;20.63;;;14.23;;
48006;SDS011;33771;48.180;11.400;2024-03-08T14:04:03;20.75;;;13.48;;
48006;SDS011;33771;48.180;11.400;2024-03-08T14:06:29;20.90;;;13.57;;
48006;SDS011;33771;48.180;11.400;2024-03-08T14:08:55;21.50;;;14.77;;
48006;SDS011;33771;48.180;11.400;2024-03-08T14:11:22;23.70;;;15.00;;
48006;SDS011;33771;48.180;11.400;2024-03-08T14:13:49;21.10;;;13.40;;
48006;SDS011;33771;48.180;11.400;2024-03-08T14:16:14;20.83;;;14.30;;
48006;SDS011;33771;48.180;11.400;2024-03-08T14:18:40;20.05;;;13.57;;
48006;SDS011;33771;48.180;11.400;2024-03-08T14:21:06;21.97;;;13.53;;
48006;SDS011;33771;48.180;11.400;2024-03-08T14:23:33;21.63;;;14.80;;